Accueil
METAR-TAF:

METAR-TAF

Aéroports :

Aéroport de Pampelune

Pampelune, Espagne

latitude: 42-46N, longitude: 001-38W, altitude: 459 m

Observation

Le bulletin a été fait il y a 28 minutes, à 12:00 UTC
Vent 10 kt de sud, variant entre sud-est et sud/sud-ouest
Température 13°C
Humidité 67%
Pression 1009 hPa
Visibilité 10 km ou plus
Nuages épars à une hauteur de 2600 ft

METAR: LEPP 211200Z 17010KT 140V200 9999 SCT026 13/07 Q1009

Heure: 13:28 (12:28 UTC)

Prévision

Le bulletin a été fait il y a 4 heures et 28 minutes, à 08:00 UTC
Prévision valable du 21 à 09 UTC au 22 à 09 UTC
Vent 6 kt de sud/sud-est
Visibilité 10 km ou plus
Nuages fragmentés à une hauteur de 4000 ft
Probabilité 30% :
Temporairement
du 21 à 09 UTC au 21 à 12 UTC
Visibilité: 3000 m
Nuages fragmentés à une hauteur de 1000 ft
pluie faible

TAF: LEPP 210800Z 2109/2209 15006KT 9999 BKN040 TX12/2115Z TN03/2206Z PROB30 TEMPO 2109/2112 3000 -RA BKN010

Observations et prévisions météorologiques de plus de 4000 aéroports (messages METAR et TAF).

Les stations disponibles sont représentées par des disques jaunes et rouges sur la carte.

Passer la souris dessus pour voir le nom de la station.

Cliquer dessus pour voir les observations et prévisions météorologiques.

Pour changer de carte: cliquez sur les boutons verts avec une croix noire pour zoomer, sur le bouton vert avec un tiret pour effectuer un zoom arrière, ou sur les flèches vertes pour les cartes adjacentes.


METAR-TAF: